NYU weather

Bagan Airport
Nyaung U, Mandalay Division, Burma

Public forecast

Using degrees Celsius for public forecast. Weather courtesy of forecast.io.

METAR (pilot weather report)

Closest report is Mandalay International Airport, 66.5 nm (123.1 km) ENE. Retrieved 2019/09/16 13:30 UTC (0 seconds ago):

VYMD 161330Z 32005KT 6000 SCT020 FEW025CB 31/27 Q1004 NOSIG

TAF (pilot weather forecast)

Closest forecast is Mandalay International Airport, 66.5 nm (123.1 km) ENE. Retrieved 2019/09/16 12:00 UTC (1 hour ago):

TAF VYMD 161100Z 1612/1712 22005KT 6000 BKN020 FEW025CB TEMPO 1612/1618 14008KT 4000 -TSRA BKN015 FEW018CB OVC090